createdAt,value
2017-12-22T00:00:28.161Z,1033.05
2017-12-22T00:01:55.506Z,1033.04
2017-12-22T00:03:22.629Z,1033.02
2017-12-22T00:04:50.068Z,1033.03
2017-12-22T00:06:17.411Z,1033.00
2017-12-22T00:07:44.691Z,1032.98
2017-12-22T00:09:11.967Z,1032.95
2017-12-22T00:10:39.398Z,1032.95
2017-12-22T00:12:06.605Z,1032.96
2017-12-22T00:13:33.938Z,1032.93
2017-12-22T00:15:01.465Z,1032.92
2017-12-22T00:16:28.908Z,1032.89
2017-12-22T00:17:56.180Z,1032.85
2017-12-22T00:19:23.459Z,1032.87
2017-12-22T00:20:50.807Z,1032.82
2017-12-22T00:22:18.015Z,1032.80
2017-12-22T00:23:45.323Z,1032.77
2017-12-22T00:25:12.702Z,1032.79
2017-12-22T00:26:39.623Z,1032.79
2017-12-22T00:28:07.010Z,1032.78
2017-12-22T00:29:34.212Z,1032.72
2017-12-22T00:31:01.467Z,1032.74
2017-12-22T00:32:28.742Z,1032.74
2017-12-22T00:33:55.947Z,1032.73
2017-12-22T00:35:23.510Z,1032.70
2017-12-22T00:36:50.721Z,1032.63
2017-12-22T00:38:18.061Z,1032.61
2017-12-22T00:39:45.201Z,1032.58
2017-12-22T00:41:12.451Z,1032.61
2017-12-22T00:42:39.739Z,1032.62
2017-12-22T00:44:07.037Z,1032.63
2017-12-22T00:45:34.463Z,1032.62
2017-12-22T00:47:01.672Z,1032.64
2017-12-22T00:48:28.836Z,1032.64
2017-12-22T00:49:56.229Z,1032.64
2017-12-22T00:51:23.402Z,1032.69
2017-12-22T00:52:50.735Z,1032.69
2017-12-22T00:54:18.065Z,1032.68
2017-12-22T00:55:45.486Z,1032.69
2017-12-22T00:57:12.767Z,1032.76
2017-12-22T00:58:40.094Z,1032.78
2017-12-22T01:00:07.280Z,1032.78
2017-12-22T01:01:34.727Z,1032.76
2017-12-22T01:03:02.065Z,1032.75
2017-12-22T01:04:29.326Z,1032.75
2017-12-22T01:05:56.539Z,1032.78
2017-12-22T01:07:23.881Z,1032.76
2017-12-22T01:08:51.181Z,1032.80
2017-12-22T01:10:18.415Z,1032.81
2017-12-22T01:11:45.660Z,1032.80
2017-12-22T01:13:12.999Z,1032.79
2017-12-22T01:14:40.282Z,1032.80
2017-12-22T01:16:07.663Z,1032.81
2017-12-22T01:17:34.760Z,1032.83
2017-12-22T01:19:02.120Z,1032.84
2017-12-22T01:20:29.552Z,1032.85
2017-12-22T01:21:56.796Z,1032.85
2017-12-22T01:23:24.010Z,1032.82
2017-12-22T01:24:51.249Z,1032.79
2017-12-22T01:26:18.548Z,1032.78
2017-12-22T01:27:45.723Z,1032.73
2017-12-22T01:29:12.973Z,1032.69
2017-12-22T01:30:40.291Z,1032.69
2017-12-22T01:32:07.534Z,1032.63
2017-12-22T01:33:34.796Z,1032.68
2017-12-22T01:35:02.153Z,1032.69
2017-12-22T01:36:29.544Z,1032.67
2017-12-22T01:37:56.866Z,1032.67
2017-12-22T01:39:24.091Z,1032.65
2017-12-22T01:40:51.355Z,1032.64
2017-12-22T01:42:18.456Z,1032.66
2017-12-22T01:43:45.865Z,1032.66
2017-12-22T01:45:13.259Z,1032.68
2017-12-22T01:46:40.320Z,1032.68
2017-12-22T01:48:07.772Z,1032.65
2017-12-22T01:49:34.998Z,1032.60
2017-12-22T01:51:02.295Z,1032.59
2017-12-22T01:52:29.441Z,1032.53
2017-12-22T01:53:56.654Z,1032.56
2017-12-22T01:55:24.002Z,1032.52
2017-12-22T01:56:51.222Z,1032.49
2017-12-22T01:58:18.532Z,1032.49
2017-12-22T01:59:45.782Z,1032.50
2017-12-22T02:01:12.975Z,1032.51
2017-12-22T02:02:40.090Z,1032.49
2017-12-22T02:04:07.504Z,1032.52
2017-12-22T02:05:34.707Z,1032.53
2017-12-22T02:07:02.055Z,1032.53
2017-12-22T02:08:29.295Z,1032.52
2017-12-22T02:09:56.610Z,1032.53
2017-12-22T02:11:23.869Z,1032.55
2017-12-22T02:12:51.195Z,1032.63
2017-12-22T02:14:18.392Z,1032.68
2017-12-22T02:15:45.724Z,1032.72
2017-12-22T02:17:13.112Z,1032.71
2017-12-22T02:18:40.267Z,1032.72
2017-12-22T02:20:07.500Z,1032.74
2017-12-22T02:21:34.660Z,1032.72
2017-12-22T02:23:01.816Z,1032.72
2017-12-22T02:24:29.174Z,1032.70
2017-12-22T02:25:56.537Z,1032.74
2017-12-22T02:27:23.910Z,1032.69
2017-12-22T02:28:50.676Z,1032.66
2017-12-22T02:30:17.916Z,1032.68
2017-12-22T02:31:45.158Z,1032.68
2017-12-22T02:33:12.323Z,1032.66
2017-12-22T02:34:39.356Z,1032.68
2017-12-22T02:36:06.639Z,1032.72
2017-12-22T02:37:33.752Z,1032.70
2017-12-22T02:39:01.090Z,1032.70
2017-12-22T02:40:28.431Z,1032.67
2017-12-22T02:41:55.835Z,1032.67
2017-12-22T02:43:23.100Z,1032.69
2017-12-22T02:44:50.227Z,1032.72
2017-12-22T02:46:17.509Z,1032.73
2017-12-22T02:47:44.789Z,1032.74
2017-12-22T02:49:11.950Z,1032.76
2017-12-22T02:50:39.399Z,1032.77
2017-12-22T02:52:06.531Z,1032.76
2017-12-22T02:53:33.949Z,1032.78
2017-12-22T02:55:01.365Z,1032.82
2017-12-22T02:56:28.612Z,1032.79
2017-12-22T02:57:55.939Z,1032.77
2017-12-22T02:59:23.267Z,1032.79
2017-12-22T03:00:50.484Z,1032.81
2017-12-22T03:02:17.791Z,1032.82
2017-12-22T03:03:45.031Z,1032.84
2017-12-22T03:05:12.385Z,1032.84
2017-12-22T03:06:39.519Z,1032.83
2017-12-22T03:08:06.897Z,1032.81
2017-12-22T03:09:34.002Z,1032.79
2017-12-22T03:11:01.469Z,1032.78
2017-12-22T03:12:28.825Z,1032.74
2017-12-22T03:13:55.895Z,1032.72
2017-12-22T03:15:23.247Z,1032.70
2017-12-22T03:16:50.671Z,1032.70
2017-12-22T03:18:17.924Z,1032.73
2017-12-22T03:19:45.177Z,1032.80
2017-12-22T03:21:12.452Z,1032.83
2017-12-22T03:22:39.625Z,1032.84
2017-12-22T03:24:07.039Z,1032.85
2017-12-22T03:25:34.264Z,1032.84
2017-12-22T03:27:01.428Z,1032.84
2017-12-22T03:28:28.738Z,1032.81
2017-12-22T03:29:56.061Z,1032.80
2017-12-22T03:31:23.318Z,1032.82
2017-12-22T03:32:50.584Z,1032.82
2017-12-22T03:34:17.964Z,1032.81
2017-12-22T03:35:45.143Z,1032.80
2017-12-22T03:37:12.459Z,1032.80
2017-12-22T03:38:39.681Z,1032.78
2017-12-22T03:40:06.978Z,1032.79
2017-12-22T03:41:34.310Z,1032.78
2017-12-22T03:43:01.543Z,1032.75
2017-12-22T03:44:28.772Z,1032.75
2017-12-22T03:45:56.258Z,1032.73
2017-12-22T03:47:23.385Z,1032.72
2017-12-22T03:48:50.800Z,1032.72
2017-12-22T03:50:18.050Z,1032.70
2017-12-22T03:51:45.285Z,1032.71
2017-12-22T03:53:12.469Z,1032.71
2017-12-22T03:54:39.687Z,1032.73
2017-12-22T03:56:07.095Z,1032.72
2017-12-22T03:57:34.507Z,1032.73
2017-12-22T03:59:01.887Z,1032.68
2017-12-22T04:00:28.987Z,1032.67
2017-12-22T04:01:56.487Z,1032.67
2017-12-22T04:03:23.758Z,1032.67
2017-12-22T04:04:51.105Z,1032.66
2017-12-22T04:06:18.388Z,1032.66
2017-12-22T04:07:45.620Z,1032.68
2017-12-22T04:09:12.959Z,1032.68
2017-12-22T04:10:40.213Z,1032.68
2017-12-22T04:12:07.564Z,1032.70
2017-12-22T04:13:34.748Z,1032.72
2017-12-22T04:15:02.103Z,1032.74
2017-12-22T04:16:29.471Z,1032.75
2017-12-22T04:17:56.766Z,1032.77
2017-12-22T04:19:24.151Z,1032.81
2017-12-22T04:20:51.333Z,1032.83
2017-12-22T04:22:18.620Z,1032.84
2017-12-22T04:23:45.891Z,1032.83
2017-12-22T04:25:13.163Z,1032.82
2017-12-22T04:26:40.326Z,1032.87
2017-12-22T04:28:07.543Z,1032.86
2017-12-22T04:29:34.735Z,1032.90
2017-12-22T04:31:02.126Z,1032.92
2017-12-22T04:32:29.507Z,1032.93
2017-12-22T04:33:56.543Z,1032.93
2017-12-22T04:35:24.056Z,1032.92
2017-12-22T04:36:51.121Z,1032.92
2017-12-22T04:38:18.345Z,1032.95
2017-12-22T04:39:45.625Z,1032.94
2017-12-22T04:41:12.849Z,1032.93
2017-12-22T04:42:40.184Z,1032.94
2017-12-22T04:44:07.202Z,1032.94
2017-12-22T04:45:34.222Z,1032.96
2017-12-22T04:47:01.688Z,1032.99
2017-12-22T04:48:29.113Z,1033.00
2017-12-22T04:49:56.214Z,1033.01
2017-12-22T04:51:23.800Z,1033.02
2017-12-22T04:52:50.809Z,1033.03
2017-12-22T04:54:17.962Z,1033.06
2017-12-22T04:55:45.306Z,1033.06
2017-12-22T04:57:12.540Z,1033.06
2017-12-22T04:58:39.749Z,1033.07
2017-12-22T05:00:06.868Z,1033.03
2017-12-22T05:01:34.186Z,1033.05
2017-12-22T05:03:01.390Z,1033.07
2017-12-22T05:04:28.725Z,1033.09
2017-12-22T05:05:55.990Z,1033.09
2017-12-22T05:07:23.163Z,1033.10
2017-12-22T05:08:50.351Z,1033.07
2017-12-22T05:10:17.811Z,1033.07
2017-12-22T05:11:44.863Z,1033.12
2017-12-22T05:13:12.063Z,1033.12
2017-12-22T05:14:39.167Z,1033.12
2017-12-22T05:16:06.583Z,1033.13
2017-12-22T05:17:33.627Z,1033.08
2017-12-22T05:19:00.958Z,1033.09
2017-12-22T05:20:28.232Z,1033.11
2017-12-22T05:21:55.598Z,1033.09
2017-12-22T05:23:22.967Z,1033.07
2017-12-22T05:24:50.222Z,1033.05
2017-12-22T05:26:17.482Z,1033.00
2017-12-22T05:27:44.771Z,1032.97
2017-12-22T05:29:12.058Z,1032.98
2017-12-22T05:30:39.222Z,1032.96
2017-12-22T05:32:06.605Z,1032.98
2017-12-22T05:33:34.018Z,1032.95
2017-12-22T05:35:01.251Z,1032.97
2017-12-22T05:36:28.533Z,1032.99
2017-12-22T05:37:55.789Z,1032.98
2017-12-22T05:39:22.986Z,1032.97
2017-12-22T05:40:49.992Z,1032.98
2017-12-22T05:42:17.388Z,1032.97
2017-12-22T05:43:44.730Z,1032.95
2017-12-22T05:45:11.679Z,1032.89
2017-12-22T05:46:38.921Z,1032.87
2017-12-22T05:48:06.074Z,1032.84
2017-12-22T05:49:33.538Z,1032.86
2017-12-22T05:51:00.724Z,1032.87
2017-12-22T05:52:27.824Z,1032.88
2017-12-22T05:53:55.016Z,1032.87
2017-12-22T05:55:22.409Z,1032.88
2017-12-22T05:56:49.436Z,1032.89
2017-12-22T05:58:16.439Z,1032.90
2017-12-22T05:59:43.600Z,1032.89
2017-12-22T06:01:10.769Z,1032.83
2017-12-22T06:02:38.095Z,1032.79
2017-12-22T06:04:05.231Z,1032.74
2017-12-22T06:05:32.391Z,1032.72
2017-12-22T06:06:59.835Z,1032.69
2017-12-22T06:08:27.171Z,1032.69
2017-12-22T06:09:54.535Z,1032.70
2017-12-22T06:11:21.905Z,1032.71
2017-12-22T06:12:49.047Z,1032.73
2017-12-22T06:14:16.379Z,1032.74
2017-12-22T06:15:43.694Z,1032.73
2017-12-22T06:17:10.786Z,1032.78
2017-12-22T06:18:38.157Z,1032.77
2017-12-22T06:20:05.322Z,1032.78
2017-12-22T06:21:32.671Z,1032.79
2017-12-22T06:22:59.901Z,1032.83
2017-12-22T06:24:27.200Z,1032.83
2017-12-22T06:25:54.564Z,1032.88
2017-12-22T06:27:21.914Z,1032.94
2017-12-22T06:28:49.135Z,1032.95
2017-12-22T06:30:16.404Z,1032.98
2017-12-22T06:31:43.638Z,1032.97
2017-12-22T06:33:11.059Z,1032.99
2017-12-22T06:34:38.111Z,1032.96
2017-12-22T06:36:05.390Z,1033.01
2017-12-22T06:37:32.601Z,1033.04
2017-12-22T06:38:59.846Z,1033.02
2017-12-22T06:40:27.002Z,1033.03
2017-12-22T06:41:54.401Z,1033.03
2017-12-22T06:43:21.629Z,1033.02
2017-12-22T06:44:48.896Z,1033.03
2017-12-22T06:46:16.292Z,1033.03
2017-12-22T06:47:43.597Z,1032.99
2017-12-22T06:49:10.770Z,1032.98
2017-12-22T06:50:38.188Z,1032.93
2017-12-22T06:52:05.494Z,1032.93
2017-12-22T06:53:32.831Z,1032.92
2017-12-22T06:54:59.904Z,1032.92
2017-12-22T06:56:27.368Z,1032.96
2017-12-22T06:57:54.633Z,1032.87
2017-12-22T06:59:21.869Z,1032.86
2017-12-22T07:00:49.373Z,1032.83
2017-12-22T07:02:16.326Z,1032.82
2017-12-22T07:03:43.722Z,1032.82
2017-12-22T07:05:10.957Z,1032.85
2017-12-22T07:06:38.053Z,1032.82
2017-12-22T07:08:05.131Z,1032.87
2017-12-22T07:09:32.486Z,1032.95
2017-12-22T07:10:59.938Z,1032.95
2017-12-22T07:12:27.216Z,1032.92
2017-12-22T07:13:54.321Z,1032.89
2017-12-22T07:15:21.649Z,1032.89
2017-12-22T07:16:48.796Z,1032.94
2017-12-22T07:18:15.962Z,1032.95
2017-12-22T07:19:43.115Z,1032.98
2017-12-22T07:21:10.099Z,1033.01
2017-12-22T07:22:37.521Z,1033.00
2017-12-22T07:24:04.845Z,1033.00
2017-12-22T07:25:32.357Z,1033.02
2017-12-22T07:26:59.667Z,1032.99
2017-12-22T07:28:26.859Z,1032.98
2017-12-22T07:29:54.133Z,1033.00
2017-12-22T07:31:21.344Z,1032.99
2017-12-22T07:32:48.846Z,1032.98
2017-12-22T07:34:15.976Z,1032.97
2017-12-22T07:35:43.343Z,1032.97
2017-12-22T07:37:10.630Z,1032.96
2017-12-22T07:38:37.763Z,1032.97
2017-12-22T07:40:04.954Z,1032.95
2017-12-22T07:41:32.124Z,1032.95
2017-12-22T07:42:59.591Z,1032.99
2017-12-22T07:44:26.948Z,1032.99
2017-12-22T07:45:54.249Z,1033.00
2017-12-22T07:47:21.431Z,1032.99
2017-12-22T07:48:48.736Z,1033.01
2017-12-22T07:50:15.965Z,1033.07
2017-12-22T07:51:43.256Z,1033.09
2017-12-22T07:53:10.582Z,1033.08
2017-12-22T07:54:37.576Z,1033.02
2017-12-22T07:56:04.800Z,1033.04
2017-12-22T07:57:32.098Z,1032.99
2017-12-22T07:58:59.180Z,1032.99
2017-12-22T08:00:26.430Z,1032.99
2017-12-22T08:01:53.658Z,1033.01
2017-12-22T08:03:20.949Z,1033.04
2017-12-22T08:04:48.351Z,1033.05
2017-12-22T08:06:15.664Z,1033.07
2017-12-22T08:07:42.882Z,1033.03
2017-12-22T08:09:10.052Z,1033.06
2017-12-22T08:10:37.460Z,1033.10
2017-12-22T08:12:04.978Z,1033.11
2017-12-22T08:13:31.954Z,1033.14
2017-12-22T08:14:59.300Z,1033.21
2017-12-22T08:16:26.429Z,1033.29
2017-12-22T08:17:53.796Z,1033.37
2017-12-22T08:19:20.974Z,1033.40
2017-12-22T08:20:48.262Z,1033.47
2017-12-22T08:22:15.533Z,1033.49
2017-12-22T08:23:42.930Z,1033.50
2017-12-22T08:25:10.053Z,1033.52
2017-12-22T08:26:37.261Z,1033.54
2017-12-22T08:28:04.450Z,1033.58
2017-12-22T08:29:31.770Z,1033.59
2017-12-22T08:30:59.189Z,1033.60
2017-12-22T08:32:26.504Z,1033.61
2017-12-22T08:33:53.782Z,1033.65
2017-12-22T08:35:21.039Z,1033.75
2017-12-22T08:36:48.332Z,1033.80
2017-12-22T08:38:15.629Z,1033.83
2017-12-22T08:39:42.844Z,1033.85
2017-12-22T08:41:10.076Z,1033.84
2017-12-22T08:42:37.381Z,1033.79
2017-12-22T08:44:04.576Z,1033.75
2017-12-22T08:45:31.941Z,1033.73
2017-12-22T08:46:59.221Z,1033.80
2017-12-22T08:48:26.557Z,1033.77
2017-12-22T08:49:53.763Z,1033.74
2017-12-22T08:51:20.874Z,1033.72
2017-12-22T08:52:48.171Z,1033.67
2017-12-22T08:54:15.404Z,1033.74
2017-12-22T08:55:42.560Z,1033.82
2017-12-22T08:57:09.906Z,1033.82
2017-12-22T08:58:36.849Z,1033.85
2017-12-22T09:00:04.019Z,1033.89
2017-12-22T09:01:31.322Z,1033.94
2017-12-22T09:02:58.663Z,1033.92
2017-12-22T09:04:26.039Z,1033.87
2017-12-22T09:05:53.394Z,1033.80
2017-12-22T09:07:20.655Z,1033.78
2017-12-22T09:08:48.007Z,1033.80
2017-12-22T09:10:15.417Z,1033.87
2017-12-22T09:11:42.722Z,1033.91
2017-12-22T09:13:10.023Z,1033.91
2017-12-22T09:14:36.908Z,1033.88
2017-12-22T09:16:04.374Z,1033.91
2017-12-22T09:17:31.672Z,1034.00
2017-12-22T09:18:58.757Z,1034.02
2017-12-22T09:20:26.093Z,1034.00
2017-12-22T09:21:53.313Z,1034.00
2017-12-22T09:23:20.778Z,1033.99
2017-12-22T09:24:47.902Z,1033.98
2017-12-22T09:26:15.266Z,1034.02
2017-12-22T09:27:42.350Z,1033.93
2017-12-22T09:29:09.694Z,1033.88
2017-12-22T09:30:36.955Z,1033.94
2017-12-22T09:32:04.015Z,1033.97
2017-12-22T09:33:31.270Z,1033.93
2017-12-22T09:34:58.720Z,1033.94
2017-12-22T09:36:25.797Z,1033.98
2017-12-22T09:37:53.167Z,1034.04
2017-12-22T09:39:20.566Z,1034.05
2017-12-22T09:40:47.819Z,1034.05
2017-12-22T09:42:15.194Z,1033.99
2017-12-22T09:43:42.388Z,1033.96
2017-12-22T09:45:09.633Z,1033.98
2017-12-22T09:46:36.890Z,1034.04
2017-12-22T09:48:04.113Z,1034.06
2017-12-22T09:49:31.325Z,1034.02
2017-12-22T09:50:58.745Z,1034.03
2017-12-22T09:52:25.959Z,1034.03
2017-12-22T09:53:53.281Z,1034.05
2017-12-22T09:55:20.627Z,1034.09
2017-12-22T09:56:47.846Z,1034.14
2017-12-22T09:58:15.149Z,1034.15
2017-12-22T09:59:42.482Z,1034.18
2017-12-22T10:01:09.650Z,1034.24
2017-12-22T10:02:36.880Z,1034.27
2017-12-22T10:04:04.201Z,1034.23
2017-12-22T10:05:31.458Z,1034.22
2017-12-22T10:06:58.815Z,1034.18
2017-12-22T10:08:26.141Z,1034.14
2017-12-22T10:09:53.536Z,1034.11
2017-12-22T10:11:20.652Z,1034.11
2017-12-22T10:12:47.772Z,1034.13
2017-12-22T10:14:15.043Z,1034.16
2017-12-22T10:15:42.347Z,1034.10
2017-12-22T10:17:09.533Z,1034.03
2017-12-22T10:18:36.941Z,1034.01
2017-12-22T10:20:04.221Z,1034.02
2017-12-22T10:21:31.555Z,1034.05
2017-12-22T10:22:58.806Z,1034.04
2017-12-22T10:24:26.113Z,1034.01
2017-12-22T10:25:53.294Z,1033.98
2017-12-22T10:27:20.693Z,1033.95
2017-12-22T10:28:48.190Z,1033.97
2017-12-22T10:30:15.504Z,1033.98
2017-12-22T10:31:42.781Z,1033.95
2017-12-22T10:33:09.986Z,1033.95
2017-12-22T10:34:37.216Z,1033.96
2017-12-22T10:36:04.457Z,1033.93
2017-12-22T10:37:31.778Z,1033.91
2017-12-22T10:38:59.146Z,1033.86
2017-12-22T10:40:26.212Z,1033.86
2017-12-22T10:41:53.585Z,1033.87
2017-12-22T10:43:21.039Z,1033.87
2017-12-22T10:44:48.145Z,1033.88
2017-12-22T10:46:15.551Z,1033.89
2017-12-22T10:47:42.757Z,1033.87
2017-12-22T10:49:09.945Z,1033.81
2017-12-22T10:50:37.270Z,1033.78
2017-12-22T10:52:04.543Z,1033.75
2017-12-22T10:53:31.807Z,1033.77
2017-12-22T10:54:59.126Z,1033.79
2017-12-22T10:56:26.515Z,1033.77
2017-12-22T10:57:53.677Z,1033.79
2017-12-22T10:59:21.076Z,1033.72
2017-12-22T11:00:48.407Z,1033.71
2017-12-22T11:02:15.742Z,1033.74
2017-12-22T11:03:42.989Z,1033.80
2017-12-22T11:05:10.318Z,1033.78
2017-12-22T11:06:37.596Z,1033.76
2017-12-22T11:08:04.884Z,1033.73
2017-12-22T11:09:32.024Z,1033.72
2017-12-22T11:10:59.436Z,1033.71
2017-12-22T11:12:26.567Z,1033.67
2017-12-22T11:13:53.715Z,1033.64
2017-12-22T11:15:21.220Z,1033.60
2017-12-22T11:16:48.476Z,1033.58
2017-12-22T11:18:15.669Z,1033.55
2017-12-22T11:19:43.104Z,1033.53
2017-12-22T11:21:10.209Z,1033.51
2017-12-22T11:22:37.596Z,1033.48
2017-12-22T11:24:04.751Z,1033.50
2017-12-22T11:25:32.019Z,1033.48
2017-12-22T11:26:59.427Z,1033.47
2017-12-22T11:28:26.620Z,1033.50
2017-12-22T11:29:54.017Z,1033.52
2017-12-22T11:31:21.304Z,1033.54
2017-12-22T11:32:48.606Z,1033.56
2017-12-22T11:34:15.967Z,1033.58
2017-12-22T11:35:43.160Z,1033.58
2017-12-22T11:37:10.496Z,1033.55
2017-12-22T11:38:37.736Z,1033.54
2017-12-22T11:40:05.133Z,1033.52
2017-12-22T11:41:32.390Z,1033.49
2017-12-22T11:42:59.710Z,1033.48
2017-12-22T11:44:27.031Z,1033.48
2017-12-22T11:45:54.307Z,1033.50
2017-12-22T11:47:21.589Z,1033.51
2017-12-22T11:48:48.871Z,1033.52
2017-12-22T11:50:16.246Z,1033.50
2017-12-22T11:51:43.527Z,1033.48
2017-12-22T11:53:10.666Z,1033.53
2017-12-22T11:54:37.943Z,1033.49
2017-12-22T11:56:05.224Z,1033.44
2017-12-22T11:57:32.367Z,1033.44
2017-12-22T11:58:59.825Z,1033.42
2017-12-22T12:00:27.226Z,1033.41
2017-12-22T12:01:54.479Z,1033.42
2017-12-22T12:03:22.032Z,1033.47
2017-12-22T12:04:49.139Z,1033.49
2017-12-22T12:06:16.460Z,1033.46
2017-12-22T12:07:43.466Z,1033.44
2017-12-22T12:09:10.796Z,1033.47
2017-12-22T12:10:38.283Z,1033.47
2017-12-22T12:12:05.678Z,1033.51
2017-12-22T12:13:32.890Z,1033.50
2017-12-22T12:15:00.124Z,1033.51
2017-12-22T12:16:27.253Z,1033.45
2017-12-22T12:17:54.505Z,1033.42
2017-12-22T12:19:21.764Z,1033.42
2017-12-22T12:20:49.052Z,1033.44
2017-12-22T12:22:16.327Z,1033.47
2017-12-22T12:23:43.454Z,1033.43
2017-12-22T12:25:10.569Z,1033.45
2017-12-22T12:26:38.029Z,1033.46
2017-12-22T12:28:05.026Z,1033.49
2017-12-22T12:29:32.296Z,1033.47
2017-12-22T12:30:59.601Z,1033.45
2017-12-22T12:32:26.701Z,1033.39
2017-12-22T12:33:53.896Z,1033.44
2017-12-22T12:35:21.213Z,1033.45
2017-12-22T12:36:48.227Z,1033.44
2017-12-22T12:38:15.450Z,1033.42
2017-12-22T12:39:42.707Z,1033.36
2017-12-22T12:41:09.884Z,1033.34
2017-12-22T12:42:37.339Z,1033.29
2017-12-22T12:44:04.625Z,1033.22
2017-12-22T12:45:31.974Z,1033.27
2017-12-22T12:46:59.319Z,1033.30
2017-12-22T12:48:26.561Z,1033.36
2017-12-22T12:49:53.890Z,1033.39
2017-12-22T12:51:21.170Z,1033.42
2017-12-22T12:52:48.661Z,1033.39
2017-12-22T12:54:16.032Z,1033.42
2017-12-22T12:55:43.375Z,1033.39
2017-12-22T12:57:10.525Z,1033.40
2017-12-22T12:58:37.815Z,1033.41
2017-12-22T13:00:05.166Z,1033.43
2017-12-22T13:01:32.316Z,1033.45
2017-12-22T13:02:59.729Z,1033.45
2017-12-22T13:04:26.776Z,1033.46
2017-12-22T13:05:54.105Z,1033.45
2017-12-22T13:07:21.393Z,1033.50
2017-12-22T13:08:48.683Z,1033.51
2017-12-22T13:10:16.036Z,1033.48
2017-12-22T13:11:43.495Z,1033.43
2017-12-22T13:13:10.629Z,1033.42
2017-12-22T13:14:37.932Z,1033.39
2017-12-22T13:16:05.273Z,1033.36
2017-12-22T13:17:32.543Z,1033.37
2017-12-22T13:18:59.805Z,1033.37
2017-12-22T13:20:26.563Z,1033.36
2017-12-22T13:21:53.894Z,1033.36
2017-12-22T13:23:21.322Z,1033.35
2017-12-22T13:24:48.464Z,1033.34
2017-12-22T13:26:15.673Z,1033.31
2017-12-22T13:27:42.888Z,1033.30
2017-12-22T13:29:10.005Z,1033.30
2017-12-22T13:30:37.124Z,1033.28
2017-12-22T13:32:04.465Z,1033.30
2017-12-22T13:33:31.685Z,1033.29
2017-12-22T13:34:58.944Z,1033.34
2017-12-22T13:36:26.460Z,1033.34
2017-12-22T13:37:53.729Z,1033.32
2017-12-22T13:39:20.947Z,1033.36
2017-12-22T13:40:48.155Z,1033.37
2017-12-22T13:42:15.417Z,1033.40
2017-12-22T13:43:42.596Z,1033.43
2017-12-22T13:45:09.816Z,1033.46
2017-12-22T13:46:37.212Z,1033.45
2017-12-22T13:48:04.528Z,1033.51
2017-12-22T13:49:31.680Z,1033.46
2017-12-22T13:50:58.993Z,1033.45
2017-12-22T13:52:26.306Z,1033.39
2017-12-22T13:53:53.536Z,1033.39
2017-12-22T13:55:20.686Z,1033.42
2017-12-22T13:56:47.983Z,1033.41
2017-12-22T13:58:15.272Z,1033.40
2017-12-22T13:59:42.615Z,1033.41
2017-12-22T14:01:09.684Z,1033.41
2017-12-22T14:02:37.094Z,1033.41
2017-12-22T14:04:04.147Z,1033.42
2017-12-22T14:05:31.488Z,1033.40
2017-12-22T14:06:59.730Z,1033.43
2017-12-22T14:08:25.985Z,1033.42
2017-12-22T14:09:53.448Z,1033.42
2017-12-22T14:11:20.666Z,1033.41
2017-12-22T14:12:47.993Z,1033.40
2017-12-22T14:14:15.406Z,1033.39
2017-12-22T14:15:42.277Z,1033.41
2017-12-22T14:17:09.590Z,1033.43
2017-12-22T14:18:36.711Z,1033.45
2017-12-22T14:20:04.222Z,1033.49
2017-12-22T14:21:31.380Z,1033.55
2017-12-22T14:22:58.495Z,1033.54
2017-12-22T14:24:25.699Z,1033.55
2017-12-22T14:25:53.103Z,1033.58
2017-12-22T14:27:20.370Z,1033.60
2017-12-22T14:28:47.601Z,1033.59
2017-12-22T14:30:14.864Z,1033.58
2017-12-22T14:31:42.220Z,1033.59
2017-12-22T14:33:09.296Z,1033.62
2017-12-22T14:34:36.555Z,1033.61
2017-12-22T14:36:03.926Z,1033.61
2017-12-22T14:37:31.108Z,1033.62
2017-12-22T14:38:58.641Z,1033.63
2017-12-22T14:40:25.921Z,1033.64
2017-12-22T14:41:53.181Z,1033.65
2017-12-22T14:43:20.512Z,1033.64
2017-12-22T14:44:47.690Z,1033.67
2017-12-22T14:46:15.062Z,1033.69
2017-12-22T14:47:42.454Z,1033.70
2017-12-22T14:49:09.730Z,1033.70
2017-12-22T14:50:37.053Z,1033.68
2017-12-22T14:52:04.448Z,1033.67
2017-12-22T14:53:31.928Z,1033.66
2017-12-22T14:54:59.120Z,1033.66
2017-12-22T14:56:26.328Z,1033.64
2017-12-22T14:57:53.595Z,1033.63
2017-12-22T14:59:20.754Z,1033.64
2017-12-22T15:00:48.299Z,1033.64
2017-12-22T15:02:15.385Z,1033.65
2017-12-22T15:03:42.720Z,1033.66
2017-12-22T15:05:09.912Z,1033.68
2017-12-22T15:06:37.252Z,1033.72
2017-12-22T15:08:04.429Z,1033.71
2017-12-22T15:09:31.893Z,1033.72
2017-12-22T15:10:59.134Z,1033.74
2017-12-22T15:12:26.366Z,1033.75
2017-12-22T15:13:53.576Z,1033.76
2017-12-22T15:15:20.852Z,1033.79
2017-12-22T15:16:48.163Z,1033.82
2017-12-22T15:18:15.079Z,1033.82
2017-12-22T15:19:42.463Z,1033.79
2017-12-22T15:21:09.652Z,1033.77
2017-12-22T15:22:36.816Z,1033.76
2017-12-22T15:24:04.327Z,1033.75
2017-12-22T15:25:31.610Z,1033.74
2017-12-22T15:26:58.662Z,1033.70
2017-12-22T15:28:25.946Z,1033.67
2017-12-22T15:29:53.163Z,1033.70
2017-12-22T15:31:20.434Z,1033.69
2017-12-22T15:32:47.597Z,1033.74
2017-12-22T15:34:14.900Z,1033.74
2017-12-22T15:35:42.027Z,1033.78
2017-12-22T15:37:09.196Z,1033.80
2017-12-22T15:38:36.370Z,1033.80
2017-12-22T15:40:03.894Z,1033.81
2017-12-22T15:41:31.137Z,1033.83
2017-12-22T15:42:58.391Z,1033.83
2017-12-22T15:44:25.864Z,1033.80
2017-12-22T15:45:52.831Z,1033.83
2017-12-22T15:47:20.287Z,1033.87
2017-12-22T15:48:47.379Z,1033.91
2017-12-22T15:50:14.614Z,1033.94
2017-12-22T15:51:41.837Z,1033.93
2017-12-22T15:53:09.027Z,1033.95
2017-12-22T15:54:36.378Z,1033.93
2017-12-22T15:56:03.677Z,1033.91
2017-12-22T15:57:30.867Z,1033.90
2017-12-22T15:58:58.135Z,1033.87
2017-12-22T16:00:25.328Z,1033.78
2017-12-22T16:01:52.636Z,1033.71
2017-12-22T16:03:20.021Z,1033.68
2017-12-22T16:04:47.062Z,1033.78
2017-12-22T16:06:14.504Z,1033.83
2017-12-22T16:07:41.681Z,1033.82
2017-12-22T16:09:08.882Z,1033.82
2017-12-22T16:10:36.176Z,1033.84
2017-12-22T16:12:03.452Z,1033.88
2017-12-22T16:13:30.794Z,1033.92
2017-12-22T16:14:58.086Z,1033.99
2017-12-22T16:16:25.133Z,1034.01
2017-12-22T16:17:52.250Z,1033.99
2017-12-22T16:19:19.470Z,1034.00
2017-12-22T16:20:46.839Z,1034.02
2017-12-22T16:22:14.107Z,1034.01
2017-12-22T16:23:41.071Z,1033.95
2017-12-22T16:25:08.227Z,1033.92
2017-12-22T16:26:35.349Z,1033.91
2017-12-22T16:28:02.681Z,1033.92
2017-12-22T16:29:30.033Z,1033.95
2017-12-22T16:30:57.252Z,1034.00
2017-12-22T16:32:24.642Z,1034.07
2017-12-22T16:33:51.832Z,1034.15
2017-12-22T16:35:19.105Z,1034.21
2017-12-22T16:36:46.464Z,1034.25
2017-12-22T16:38:13.604Z,1034.26
2017-12-22T16:39:40.652Z,1034.25
2017-12-22T16:41:07.795Z,1034.24
2017-12-22T16:42:34.932Z,1034.18
2017-12-22T16:44:02.243Z,1034.12
2017-12-22T16:45:29.246Z,1034.10
2017-12-22T16:46:56.486Z,1034.09
2017-12-22T16:48:23.810Z,1034.09
2017-12-22T16:49:51.058Z,1034.04
2017-12-22T16:51:18.522Z,1033.98
2017-12-22T16:52:45.803Z,1033.97
2017-12-22T16:54:12.914Z,1034.01
2017-12-22T16:55:40.171Z,1034.07
2017-12-22T16:57:07.324Z,1034.07
2017-12-22T16:58:34.554Z,1034.06
2017-12-22T17:00:01.573Z,1034.02
2017-12-22T17:01:28.862Z,1034.01
2017-12-22T17:02:56.042Z,1034.02
2017-12-22T17:04:23.471Z,1033.97
2017-12-22T17:05:50.569Z,1033.98
2017-12-22T17:07:17.756Z,1034.04
2017-12-22T17:08:44.897Z,1034.03
2017-12-22T17:10:12.013Z,1034.07
2017-12-22T17:11:39.307Z,1034.11
2017-12-22T17:13:06.346Z,1034.14
2017-12-22T17:14:33.828Z,1034.14
2017-12-22T17:16:01.050Z,1034.14
2017-12-22T17:17:28.328Z,1034.13
2017-12-22T17:18:55.565Z,1034.16
2017-12-22T17:20:22.666Z,1034.21
2017-12-22T17:21:50.129Z,1034.26
2017-12-22T17:23:17.249Z,1034.28
2017-12-22T17:24:44.431Z,1034.26
2017-12-22T17:26:11.372Z,1034.28
2017-12-22T17:27:38.584Z,1034.28
2017-12-22T17:29:05.796Z,1034.27
2017-12-22T17:30:33.130Z,1034.28
2017-12-22T17:32:00.470Z,1034.26
2017-12-22T17:33:27.616Z,1034.27
2017-12-22T17:34:55.146Z,1034.30